KCPS/CPS METAR and TAF weather

Enter ICAO airport designator
Station Type Date Time Source
KCPS METAR 2019/05/21 19:53 UTC NOAA

KCPS 211953Z 11008KT 10SM OVC015 19/16 A2976 RMK AO2 SLP076 T01940161


Station Type Date Time Source
KCPS Decoded METAR 2019/05/21 19:53 UTC NOAA

ST LOUIS DOWNTOWN AIRPORT, IL, United States (KCPS) 38-34N 090-09W 126M
May 21, 2019 - 03:53 PM EDT / 2019.05.21 1953 UTC
Wind: from the ESE (110 degrees) at 9 MPH (8 KT):0
Visibility: 10 mile(s):0
Sky conditions: overcast
Temperature: 66.9 F (19.4 C)
Dew Point: 61.0 F (16.1 C)
Relative Humidity: 81%
Pressure (altimeter): 29.76 in. Hg (1007 hPa)
ob: KCPS 211953Z 11008KT 10SM OVC015 19/16 A2976 RMK AO2 SLP076 T01940161
cycle: 20

Station Type Date Time Source
KCPS TAF 2019/05/21 18:39 UTC NOAA

TAF KCPS 211736Z 2118/2218 12014KT P6SM OVC015
FM212100 15012G20KT P6SM BKN030
FM212300 15017G26KT 4SM TSRA OVC040CB
TEMPO 2200/2202 26020G45KT 1SM +TSRA OVC030CB
FM220300 19011G23KT P6SM VCSH OVC060
FM220600 17007KT P6SM SCT090

Example: see airport list